Carnival Victory — 3FFL8 — position and weather

sailwx.info

Track history (hours):
 
Tides and Currents Weather Stations Pressure Air Temp Water Temp Dewpoint Dewpoint Depression Visibility Wind Speed Wind Dir Waves Ship Positions

Carnival Victory

Operator: Carnival Cruise Lines

Last reported at 2015-Jan-26 01:00 UTC. Time now 2015-Jan-27 03:29 UTC.
Position N 20°24' W 074°12'.

Type: Ship. MMSI: 355263000.

Wind from 360 at 16 knots

Waves 0.5 meters (2 feet), 3 second period

Barometer 1011.0 mb
Air temperature 25.0 ° C
Dewpoint 24.0 ° C
Water temperature 26.0 ° C

Date/timePositionNaut miles runAvg speedWind from/ knotsBaromVisibWave heightAir tempDewpointWater temp
2015-Jan-26 01:00N 20°24' W 074°12'42717.8 360 / 161011.0 0.525.024.026.0
2015-Jan-25 01:00N 25°18' W 079°48'1114.6 280 / 171011.0 5.4 2.521.020.026.0
2015-Jan-25 00:14N 25°28' W 079°53'1217.5
2015-Jan-24 23:33N 25°39' W 079°59'1211.6
2015-Jan-24 22:33N 25°46' W 080°09'2 1.4
2015-Jan-24 21:27N 25°47' W 080°10'0 0.0
2015-Jan-24 20:33N 25°47' W 080°10'0 0.0
2015-Jan-24 19:30N 25°47' W 080°10'0 0.0
2015-Jan-24 18:23N 25°47' W 080°10'0 0.0
2015-Jan-24 17:32N 25°47' W 080°10'0 0.0
2015-Jan-24 16:31N 25°47' W 080°10'0 0.0
2015-Jan-24 15:28N 25°47' W 080°10'0 0.0
2015-Jan-24 14:27N 25°47' W 080°10'0 0.0
2015-Jan-24 13:33N 25°47' W 080°10'0 0.0
2015-Jan-24 12:30N 25°47' W 080°10'5 5.1
2015-Jan-24 11:33N 25°46' W 080°05'1110.8
2015-Jan-24 10:33N 25°51' W 079°55'1211.6
2015-Jan-24 09:34N 25°57' W 079°44'1110.8
2015-Jan-24 08:33N 26°03' W 079°34'1110.7
2015-Jan-24 07:33N 26°09' W 079°24'1111.3
2015-Jan-24 06:34N 26°15' W 079°13'5914.4
2015-Jan-24 02:27N 26°01' W 078°09'3222.3
2015-Jan-24 01:00N 25°48' W 077°36'4 7.9 150 / 201017.0 5.4 2.024.023.026.0
2015-Jan-24 00:31N 25°52' W 077°35'40511.1
2015-Jan-22 12:00N 21°54' W 071°36'22220.2 190 / 101017.0 5.4 1.5 26.5
2015-Jan-22 01:00N 23°42' W 075°06'148 4.1 020 / 191017.0 5.4 25.024.026.0
2015-Jan-20 13:06N 25°05' W 077°21'5710.1
2015-Jan-20 07:29N 25°57' W 077°46'1212.4
2015-Jan-20 06:33N 26°02' W 077°57'1212.2
2015-Jan-20 05:32N 26°06' W 078°11'2713.2
2015-Jan-20 03:31N 26°12' W 078°40'1815.7
2015-Jan-20 02:22N 26°17' W 078°59'1214.9
2015-Jan-20 01:33N 26°15' W 079°13'1425.1
2015-Jan-20 01:00N 26°06' W 079°24'4 8.6 080 / 111017.0 5.4 1.020.019.027.0
2015-Jan-20 00:33N 26°06' W 079°28'1717.3
2015-Jan-19 23:33N 25°57' W 079°44'1716.9
2015-Jan-19 22:33N 25°48' W 080°00'9 9.0
2015-Jan-19 21:33N 25°47' W 080°10'0 0.1
2015-Jan-19 20:24N 25°47' W 080°10'0 0.0
2015-Jan-19 19:33N 25°47' W 080°10'0 0.0
2015-Jan-19 18:29N 25°47' W 080°10'0 0.0
2015-Jan-19 17:20N 25°47' W 080°10'0 0.0
2015-Jan-19 16:31N 25°47' W 080°10'0 0.0
2015-Jan-19 15:28N 25°47' W 080°10'0 0.0
2015-Jan-19 14:33N 25°47' W 080°10'0 0.0
2015-Jan-19 13:27N 25°47' W 080°10'0 0.0
2015-Jan-19 12:33N 25°47' W 080°10'1 1.2
2015-Jan-19 11:33N 25°46' W 080°09'9 9.3
2015-Jan-19 10:33N 25°42' W 079°59'1313.3
2015-Jan-19 09:33N 25°29' W 079°57'1914.0
2015-Jan-19 08:13N 25°11' W 080°00'1014.2
2015-Jan-19 07:32N 25°01' W 080°02'46217.0
2015-Jan-18 04:21N 20°39' W 086°55'1013.2
2015-Jan-18 03:33N 20°29' W 086°59'0 0.3
2015-Jan-18 02:15N 20°29' W 086°59'0 0.0
2015-Jan-18 01:30N 20°29' W 086°59'0 0.0
2015-Jan-18 00:17N 20°29' W 086°59'0 0.0
2015-Jan-17 23:17N 20°29' W 086°59'0 0.0
2015-Jan-17 22:32N 20°29' W 086°59'0 0.0
2015-Jan-17 21:16N 20°29' W 086°59'0 0.0
2015-Jan-17 20:22N 20°29' W 086°59'0 0.0
2015-Jan-17 19:27N 20°29' W 086°59'0 0.0
2015-Jan-17 18:27N 20°29' W 086°59'0 0.2
2015-Jan-17 17:32N 20°29' W 086°59'  
Track history (hours):
 
Tides and Currents Weather Stations Pressure Air Temp Water Temp Dewpoint Dewpoint Depression Visibility Wind Speed Wind Dir Waves Ship Positions

Carnival Victory

Operator: Carnival Cruise Lines

Last reported at 2015-Jan-26 01:00 UTC. Time now 2015-Jan-27 03:29 UTC.
Position N 20°24' W 074°12'.

Type: Ship. MMSI: 355263000.

Wind from 360 at 16 knots

Waves 0.5 meters (2 feet), 3 second period

Barometer 1011.0 mb
Air temperature 25.0 ° C
Dewpoint 24.0 ° C
Water temperature 26.0 ° C

Date/timePositionNaut miles runAvg speedWind from/ knotsBaromVisibWave heightAir tempDewpointWater temp
2015-Jan-26 01:00N 20°24' W 074°12'42717.8 360 / 161011.0 0.525.024.026.0
2015-Jan-25 01:00N 25°18' W 079°48'1114.6 280 / 171011.0 5.4 2.521.020.026.0
2015-Jan-25 00:14N 25°28' W 079°53'1217.5
2015-Jan-24 23:33N 25°39' W 079°59'1211.6
2015-Jan-24 22:33N 25°46' W 080°09'2 1.4
2015-Jan-24 21:27N 25°47' W 080°10'0 0.0
2015-Jan-24 20:33N 25°47' W 080°10'0 0.0
2015-Jan-24 19:30N 25°47' W 080°10'0 0.0
2015-Jan-24 18:23N 25°47' W 080°10'0 0.0
2015-Jan-24 17:32N 25°47' W 080°10'0 0.0
2015-Jan-24 16:31N 25°47' W 080°10'0 0.0
2015-Jan-24 15:28N 25°47' W 080°10'0 0.0
2015-Jan-24 14:27N 25°47' W 080°10'0 0.0
2015-Jan-24 13:33N 25°47' W 080°10'0 0.0
2015-Jan-24 12:30N 25°47' W 080°10'5 5.1
2015-Jan-24 11:33N 25°46' W 080°05'1110.8
2015-Jan-24 10:33N 25°51' W 079°55'1211.6
2015-Jan-24 09:34N 25°57' W 079°44'1110.8
2015-Jan-24 08:33N 26°03' W 079°34'1110.7
2015-Jan-24 07:33N 26°09' W 079°24'1111.3
2015-Jan-24 06:34N 26°15' W 079°13'5914.4
2015-Jan-24 02:27N 26°01' W 078°09'3222.3
2015-Jan-24 01:00N 25°48' W 077°36'4 7.9 150 / 201017.0 5.4 2.024.023.026.0
2015-Jan-24 00:31N 25°52' W 077°35'40511.1
2015-Jan-22 12:00N 21°54' W 071°36'22220.2 190 / 101017.0 5.4 1.5 26.5
2015-Jan-22 01:00N 23°42' W 075°06'148 4.1 020 / 191017.0 5.4 25.024.026.0
2015-Jan-20 13:06N 25°05' W 077°21'5710.1
2015-Jan-20 07:29N 25°57' W 077°46'1212.4
2015-Jan-20 06:33N 26°02' W 077°57'1212.2
2015-Jan-20 05:32N 26°06' W 078°11'2713.2
2015-Jan-20 03:31N 26°12' W 078°40'1815.7
2015-Jan-20 02:22N 26°17' W 078°59'1214.9
2015-Jan-20 01:33N 26°15' W 079°13'1425.1
2015-Jan-20 01:00N 26°06' W 079°24'4 8.6 080 / 111017.0 5.4 1.020.019.027.0
2015-Jan-20 00:33N 26°06' W 079°28'1717.3
2015-Jan-19 23:33N 25°57' W 079°44'1716.9
2015-Jan-19 22:33N 25°48' W 080°00'9 9.0
2015-Jan-19 21:33N 25°47' W 080°10'0 0.1
2015-Jan-19 20:24N 25°47' W 080°10'0 0.0
2015-Jan-19 19:33N 25°47' W 080°10'0 0.0
2015-Jan-19 18:29N 25°47' W 080°10'0 0.0
2015-Jan-19 17:20N 25°47' W 080°10'0 0.0
2015-Jan-19 16:31N 25°47' W 080°10'0 0.0
2015-Jan-19 15:28N 25°47' W 080°10'0 0.0
2015-Jan-19 14:33N 25°47' W 080°10'0 0.0
2015-Jan-19 13:27N 25°47' W 080°10'0 0.0
2015-Jan-19 12:33N 25°47' W 080°10'1 1.2
2015-Jan-19 11:33N 25°46' W 080°09'9 9.3
2015-Jan-19 10:33N 25°42' W 079°59'1313.3
2015-Jan-19 09:33N 25°29' W 079°57'1914.0
2015-Jan-19 08:13N 25°11' W 080°00'1014.2
2015-Jan-19 07:32N 25°01' W 080°02'46217.0
2015-Jan-18 04:21N 20°39' W 086°55'1013.2
2015-Jan-18 03:33N 20°29' W 086°59'0 0.3
2015-Jan-18 02:15N 20°29' W 086°59'0 0.0
2015-Jan-18 01:30N 20°29' W 086°59'0 0.0
2015-Jan-18 00:17N 20°29' W 086°59'0 0.0
2015-Jan-17 23:17N 20°29' W 086°59'0 0.0
2015-Jan-17 22:32N 20°29' W 086°59'0 0.0
2015-Jan-17 21:16N 20°29' W 086°59'0 0.0
2015-Jan-17 20:22N 20°29' W 086°59'0 0.0
2015-Jan-17 19:27N 20°29' W 086°59'0 0.0
2015-Jan-17 18:27N 20°29' W 086°59'0 0.2
2015-Jan-17 17:32N 20°29' W 086°59'  

Dump ship's entire track history